createdAt,value
2022-07-31T00:00:33.368Z,17.31
2022-07-31T00:01:28.655Z,17.34
2022-07-31T00:02:23.967Z,17.33
2022-07-31T00:03:19.620Z,17.33
2022-07-31T00:04:14.767Z,17.38
2022-07-31T00:05:10.621Z,17.41
2022-07-31T00:06:05.894Z,17.42
2022-07-31T00:07:01.666Z,17.43
2022-07-31T00:07:56.965Z,17.42
2022-07-31T00:08:52.135Z,17.42
2022-07-31T00:09:53.395Z,17.36
2022-07-31T00:10:44.573Z,17.31
2022-07-31T00:11:38.829Z,17.26
2022-07-31T00:12:34.961Z,17.24
2022-07-31T00:13:58.173Z,17.25
2022-07-31T00:14:26.590Z,17.23
2022-07-31T00:15:20.814Z,17.21
2022-07-31T00:16:17.235Z,17.21
2022-07-31T00:17:11.973Z,17.20
2022-07-31T00:18:07.124Z,17.16
2022-07-31T00:19:03.003Z,17.14
2022-07-31T00:19:58.291Z,17.15
2022-07-31T00:20:53.589Z,17.13
2022-07-31T00:21:48.771Z,17.11
2022-07-31T00:22:43.932Z,17.11
2022-07-31T00:23:40.318Z,17.11
2022-07-31T00:24:35.622Z,17.12
2022-07-31T00:25:31.340Z,17.17
2022-07-31T00:26:26.501Z,17.21
2022-07-31T00:27:21.678Z,17.22
2022-07-31T00:28:17.430Z,17.23
2022-07-31T00:29:12.728Z,17.24
2022-07-31T00:30:08.694Z,17.24
2022-07-31T00:31:03.839Z,17.25
2022-07-31T00:31:59.139Z,17.24
2022-07-31T00:32:55.039Z,17.22
2022-07-31T00:33:50.182Z,17.19
2022-07-31T00:34:45.583Z,17.18
2022-07-31T00:35:41.739Z,17.15
2022-07-31T00:36:36.907Z,17.13
2022-07-31T00:37:32.338Z,17.10
2022-07-31T00:38:27.772Z,17.07
2022-07-31T00:39:24.866Z,17.03
2022-07-31T00:40:20.004Z,16.99
2022-07-31T00:41:15.482Z,16.97
2022-07-31T00:42:11.065Z,16.93
2022-07-31T00:43:06.245Z,16.92
2022-07-31T00:44:01.549Z,16.93
2022-07-31T00:44:56.752Z,16.98
2022-07-31T00:45:58.567Z,16.98
2022-07-31T00:46:47.934Z,16.96
2022-07-31T00:47:41.949Z,16.98
2022-07-31T00:48:36.965Z,17.00
2022-07-31T00:49:37.375Z,16.96
2022-07-31T00:50:28.073Z,16.96
2022-07-31T00:51:23.002Z,16.96
2022-07-31T00:52:18.172Z,16.96
2022-07-31T00:53:13.206Z,16.93
2022-07-31T00:54:08.213Z,16.94
2022-07-31T00:55:03.272Z,16.94
2022-07-31T00:55:58.442Z,16.96
2022-07-31T00:56:53.605Z,16.93
2022-07-31T00:57:52.867Z,16.92
2022-07-31T00:58:48.015Z,16.90
2022-07-31T00:59:43.318Z,16.87
2022-07-31T01:00:38.468Z,16.86
2022-07-31T01:01:33.834Z,16.85
2022-07-31T01:02:28.854Z,16.83
2022-07-31T01:03:23.888Z,16.81
2022-07-31T01:04:18.886Z,16.80
2022-07-31T01:05:13.974Z,16.76
2022-07-31T01:06:09.004Z,16.75
2022-07-31T01:07:04.277Z,16.73
2022-07-31T01:07:59.060Z,16.71
2022-07-31T01:08:54.076Z,16.64
2022-07-31T01:09:49.059Z,16.57
2022-07-31T01:10:44.218Z,16.55
2022-07-31T01:11:39.249Z,16.56
2022-07-31T01:12:34.248Z,16.56
2022-07-31T01:13:29.276Z,16.57
2022-07-31T01:14:24.289Z,16.59
2022-07-31T01:15:20.826Z,16.60
2022-07-31T01:16:15.858Z,16.57
2022-07-31T01:17:11.025Z,16.54
2022-07-31T01:18:06.198Z,16.53
2022-07-31T01:19:01.257Z,16.50
2022-07-31T01:19:56.275Z,16.49
2022-07-31T01:20:51.312Z,16.47
2022-07-31T01:21:46.294Z,16.45
2022-07-31T01:22:41.349Z,16.43
2022-07-31T01:23:36.349Z,16.45
2022-07-31T01:24:31.354Z,16.46
2022-07-31T01:25:26.443Z,16.46
2022-07-31T01:26:21.453Z,16.43
2022-07-31T01:27:16.542Z,16.37
2022-07-31T01:28:11.761Z,16.35
2022-07-31T01:29:06.578Z,16.34
2022-07-31T01:30:05.090Z,16.33
2022-07-31T01:31:24.262Z,16.30
2022-07-31T01:31:56.216Z,16.26
2022-07-31T01:32:51.289Z,16.24
2022-07-31T01:33:46.452Z,16.28
2022-07-31T01:34:41.609Z,16.29
2022-07-31T01:35:38.122Z,16.27
2022-07-31T01:36:33.455Z,16.26
2022-07-31T01:37:29.348Z,16.28
2022-07-31T01:38:24.483Z,16.31
2022-07-31T01:39:19.657Z,16.32
2022-07-31T01:40:15.508Z,16.30
2022-07-31T01:41:10.705Z,16.27
2022-07-31T01:42:06.779Z,16.23
2022-07-31T01:43:01.794Z,16.19
2022-07-31T01:43:56.998Z,16.15
2022-07-31T01:44:53.000Z,16.12
2022-07-31T01:45:48.201Z,16.09
2022-07-31T01:46:43.339Z,16.03
2022-07-31T01:47:39.741Z,15.98
2022-07-31T01:48:35.036Z,15.96
2022-07-31T01:49:30.998Z,15.92
2022-07-31T01:50:42.783Z,15.89
2022-07-31T01:51:22.807Z,15.87
2022-07-31T01:52:17.010Z,15.86
2022-07-31T01:53:12.983Z,15.84
2022-07-31T01:54:08.384Z,15.83
2022-07-31T01:55:03.576Z,15.82
2022-07-31T01:56:03.700Z,15.77
2022-07-31T01:56:54.589Z,15.73
2022-07-31T01:57:50.462Z,15.69
2022-07-31T01:58:45.735Z,15.65
2022-07-31T01:59:44.734Z,15.62
2022-07-31T02:00:36.885Z,15.60
2022-07-31T02:01:32.213Z,15.61
2022-07-31T02:02:27.372Z,15.62
2022-07-31T02:03:43.765Z,15.61
2022-07-31T02:04:20.137Z,15.62
2022-07-31T02:05:14.943Z,15.67
2022-07-31T02:06:10.072Z,15.71
2022-07-31T02:07:05.263Z,15.73
2022-07-31T02:08:01.099Z,15.74
2022-07-31T02:08:56.333Z,15.77
2022-07-31T02:09:57.969Z,15.80
2022-07-31T02:10:48.222Z,15.78
2022-07-31T02:11:54.675Z,15.76
2022-07-31T02:12:39.199Z,15.73
2022-07-31T02:13:34.132Z,15.72
2022-07-31T02:14:29.253Z,15.72
2022-07-31T02:15:24.548Z,15.73
2022-07-31T02:16:20.299Z,15.76
2022-07-31T02:17:15.609Z,15.79
2022-07-31T02:18:11.798Z,15.80
2022-07-31T02:19:06.038Z,15.82
2022-07-31T02:20:01.932Z,15.82
2022-07-31T02:20:57.107Z,15.80
2022-07-31T02:21:52.518Z,15.75
2022-07-31T02:22:48.528Z,15.68
2022-07-31T02:23:43.840Z,15.69
2022-07-31T02:24:39.587Z,15.73
2022-07-31T02:25:34.897Z,15.75
2022-07-31T02:26:30.195Z,15.74
2022-07-31T02:27:58.012Z,15.74
2022-07-31T02:28:21.534Z,15.70
2022-07-31T02:29:20.099Z,15.66
2022-07-31T02:30:11.659Z,15.63
2022-07-31T02:31:06.844Z,15.64
2022-07-31T02:32:03.507Z,15.60
2022-07-31T02:32:58.385Z,15.57
2022-07-31T02:33:53.587Z,15.56
2022-07-31T02:34:49.293Z,15.57
2022-07-31T02:35:45.219Z,15.56
2022-07-31T02:36:39.704Z,15.52
2022-07-31T02:37:36.112Z,15.49
2022-07-31T02:38:31.435Z,15.45
2022-07-31T02:39:30.506Z,15.42
2022-07-31T02:40:22.339Z,15.40
2022-07-31T02:41:18.172Z,15.40
2022-07-31T02:42:13.351Z,15.40
2022-07-31T02:43:09.200Z,15.38
2022-07-31T02:44:04.474Z,15.34
2022-07-31T02:44:59.621Z,15.36
2022-07-31T02:45:54.891Z,15.36
2022-07-31T02:46:50.310Z,15.34
2022-07-31T02:47:45.669Z,15.28
2022-07-31T02:48:40.797Z,15.26
2022-07-31T02:49:37.218Z,15.27
2022-07-31T02:50:32.481Z,15.25
2022-07-31T02:51:27.778Z,15.22
2022-07-31T02:52:24.309Z,15.18
2022-07-31T02:53:19.595Z,15.13
2022-07-31T02:54:14.898Z,15.11
2022-07-31T02:55:10.071Z,15.09
2022-07-31T02:56:05.071Z,15.11
2022-07-31T02:57:00.096Z,15.10
2022-07-31T02:57:55.146Z,15.12
2022-07-31T02:58:50.305Z,15.19
2022-07-31T02:59:45.364Z,15.21
2022-07-31T03:00:40.490Z,15.24
2022-07-31T03:01:35.414Z,15.24
2022-07-31T03:02:34.667Z,15.23
2022-07-31T03:03:26.509Z,15.18
2022-07-31T03:04:20.709Z,15.17
2022-07-31T03:05:15.615Z,15.14
2022-07-31T03:06:10.644Z,15.17
2022-07-31T03:07:05.701Z,15.17
2022-07-31T03:08:00.710Z,15.18
2022-07-31T03:08:55.738Z,15.19
2022-07-31T03:09:50.741Z,15.22
2022-07-31T03:10:45.751Z,15.27
2022-07-31T03:11:40.782Z,15.28
2022-07-31T03:12:35.820Z,15.28
2022-07-31T03:13:30.826Z,15.29
2022-07-31T03:14:26.011Z,15.35
2022-07-31T03:15:22.074Z,15.37
2022-07-31T03:16:16.071Z,15.40
2022-07-31T03:17:13.149Z,15.44
2022-07-31T03:18:11.319Z,15.45
2022-07-31T03:19:03.204Z,15.46
2022-07-31T03:19:58.220Z,15.49
2022-07-31T03:20:53.279Z,15.45
2022-07-31T03:21:48.268Z,15.39
2022-07-31T03:22:43.339Z,15.31
2022-07-31T03:23:38.388Z,15.22
2022-07-31T03:24:33.547Z,15.21
2022-07-31T03:25:28.567Z,15.17
2022-07-31T03:26:23.631Z,15.13
2022-07-31T03:27:18.657Z,15.10
2022-07-31T03:28:14.216Z,15.09
2022-07-31T03:29:43.477Z,15.09
2022-07-31T03:30:06.018Z,15.06
2022-07-31T03:31:00.217Z,15.06
2022-07-31T03:31:56.106Z,15.05
2022-07-31T03:32:51.321Z,15.04
2022-07-31T03:33:46.559Z,15.03
2022-07-31T03:34:42.356Z,15.01
2022-07-31T03:35:42.187Z,15.03
2022-07-31T03:36:34.523Z,15.03
2022-07-31T03:37:28.666Z,15.07
2022-07-31T03:38:39.253Z,15.13
2022-07-31T03:39:21.633Z,15.18
2022-07-31T03:40:15.800Z,15.22
2022-07-31T03:41:11.153Z,15.24
2022-07-31T03:42:07.527Z,15.30
2022-07-31T03:43:03.601Z,15.33
2022-07-31T03:43:58.316Z,15.34
2022-07-31T03:44:53.621Z,15.33
2022-07-31T03:45:48.971Z,15.29
2022-07-31T03:46:44.622Z,15.27
2022-07-31T03:47:39.842Z,15.33
2022-07-31T03:48:35.670Z,15.42
2022-07-31T03:49:30.964Z,15.48
2022-07-31T03:50:26.410Z,15.49
2022-07-31T03:51:22.109Z,15.49
2022-07-31T03:52:17.369Z,15.50
2022-07-31T03:53:12.635Z,15.49
2022-07-31T03:54:09.009Z,15.46
2022-07-31T03:55:04.309Z,15.42
2022-07-31T03:56:00.142Z,15.34
2022-07-31T03:56:55.442Z,15.30
2022-07-31T03:57:50.790Z,15.25
2022-07-31T03:58:51.548Z,15.21
2022-07-31T03:59:47.932Z,15.17
2022-07-31T04:00:38.549Z,15.21
2022-07-31T04:02:09.137Z,15.28
2022-07-31T04:02:31.801Z,15.36
2022-07-31T04:03:24.936Z,15.40
2022-07-31T04:04:20.405Z,15.43
2022-07-31T04:05:15.627Z,15.47
2022-07-31T04:06:11.486Z,15.52
2022-07-31T04:07:06.703Z,15.53
2022-07-31T04:08:02.023Z,15.56
2022-07-31T04:08:57.792Z,15.55
2022-07-31T04:09:53.098Z,15.55
2022-07-31T04:10:48.533Z,15.52
2022-07-31T04:11:44.703Z,15.49
2022-07-31T04:12:40.048Z,15.48
2022-07-31T04:13:35.802Z,15.51
2022-07-31T04:14:31.101Z,15.55
2022-07-31T04:15:26.540Z,15.58
2022-07-31T04:16:21.727Z,15.56
2022-07-31T04:17:17.052Z,15.51
2022-07-31T04:18:12.412Z,15.49
2022-07-31T04:19:07.447Z,15.44
2022-07-31T04:20:02.503Z,15.42
2022-07-31T04:20:57.552Z,15.40
2022-07-31T04:21:52.596Z,15.41
2022-07-31T04:22:49.328Z,15.43
2022-07-31T04:23:42.671Z,15.41
2022-07-31T04:24:38.677Z,15.40
2022-07-31T04:25:32.691Z,15.42
2022-07-31T04:26:27.789Z,15.44
2022-07-31T04:27:22.790Z,15.49
2022-07-31T04:28:17.889Z,15.53
2022-07-31T04:29:12.866Z,15.59
2022-07-31T04:30:07.968Z,15.61
2022-07-31T04:31:03.070Z,15.60
2022-07-31T04:31:58.197Z,15.60
2022-07-31T04:32:53.320Z,15.64
2022-07-31T04:33:50.330Z,15.66
2022-07-31T04:34:44.408Z,15.68
2022-07-31T04:35:38.430Z,15.71
2022-07-31T04:36:33.541Z,15.75
2022-07-31T04:37:28.633Z,15.72
2022-07-31T04:38:23.769Z,15.72
2022-07-31T04:39:18.856Z,15.73
2022-07-31T04:40:13.998Z,15.73
2022-07-31T04:41:09.225Z,15.71
2022-07-31T04:42:04.787Z,15.70
2022-07-31T04:43:00.031Z,15.71
2022-07-31T04:43:55.397Z,15.76
2022-07-31T04:44:50.764Z,15.81
2022-07-31T04:45:46.171Z,15.84
2022-07-31T04:46:41.531Z,15.85
2022-07-31T04:47:37.024Z,15.85
2022-07-31T04:48:32.296Z,15.82
2022-07-31T04:49:27.784Z,15.81
2022-07-31T04:50:23.133Z,15.87
2022-07-31T04:51:18.564Z,15.89
2022-07-31T04:52:13.575Z,15.91
2022-07-31T04:53:08.601Z,15.95
2022-07-31T04:54:03.638Z,15.96
2022-07-31T04:54:58.674Z,15.92
2022-07-31T04:55:53.679Z,15.90
2022-07-31T04:56:48.679Z,15.92
2022-07-31T04:57:43.713Z,15.94
2022-07-31T04:58:38.743Z,15.92
2022-07-31T04:59:59.890Z,15.90
2022-07-31T05:00:29.795Z,15.91
2022-07-31T05:01:23.878Z,15.97
2022-07-31T05:02:18.920Z,15.98
2022-07-31T05:03:13.979Z,15.98
2022-07-31T05:04:08.988Z,15.99
2022-07-31T05:05:04.964Z,16.00
2022-07-31T05:06:00.359Z,16.01
2022-07-31T05:06:55.768Z,16.03
2022-07-31T05:07:51.230Z,16.04
2022-07-31T05:08:46.646Z,16.05
2022-07-31T05:09:42.193Z,16.10
2022-07-31T05:10:37.502Z,16.12
2022-07-31T05:11:32.922Z,16.15
2022-07-31T05:12:28.397Z,16.18
2022-07-31T05:13:23.813Z,16.24
2022-07-31T05:14:19.236Z,16.31
2022-07-31T05:15:14.654Z,16.35
2022-07-31T05:16:10.059Z,16.38
2022-07-31T05:17:05.493Z,16.39
2022-07-31T05:18:01.070Z,16.40
2022-07-31T05:18:56.475Z,16.39
2022-07-31T05:19:51.886Z,16.43
2022-07-31T05:20:47.339Z,16.48
2022-07-31T05:21:53.313Z,16.52
2022-07-31T05:22:39.322Z,16.56
2022-07-31T05:23:33.675Z,16.60
2022-07-31T05:24:33.851Z,16.59
2022-07-31T05:25:25.509Z,16.61
2022-07-31T05:26:19.978Z,16.63
2022-07-31T05:27:19.340Z,16.63
2022-07-31T05:28:14.891Z,16.63
2022-07-31T05:29:10.184Z,16.63
2022-07-31T05:30:05.602Z,16.65
2022-07-31T05:31:01.202Z,16.67
2022-07-31T05:32:00.621Z,16.76
2022-07-31T05:32:52.108Z,16.84
2022-07-31T05:33:47.541Z,16.94
2022-07-31T05:34:42.968Z,17.01
2022-07-31T05:35:38.469Z,17.10
2022-07-31T05:36:34.056Z,17.13
2022-07-31T05:37:29.477Z,17.19
2022-07-31T05:38:24.906Z,17.26
2022-07-31T05:39:20.330Z,17.33
2022-07-31T05:40:15.917Z,17.40
2022-07-31T05:41:10.911Z,17.45
2022-07-31T05:42:06.217Z,17.49
2022-07-31T05:43:00.980Z,17.51
2022-07-31T05:43:56.287Z,17.49
2022-07-31T05:44:51.158Z,17.45
2022-07-31T05:45:46.188Z,17.47
2022-07-31T05:46:41.191Z,17.52
2022-07-31T05:47:40.467Z,17.55
2022-07-31T05:48:31.289Z,17.58
2022-07-31T05:49:26.411Z,17.62
2022-07-31T05:50:23.093Z,17.59
2022-07-31T05:51:18.095Z,17.63
2022-07-31T05:52:13.088Z,17.70
2022-07-31T05:53:08.101Z,17.73
2022-07-31T05:54:03.833Z,17.74
2022-07-31T05:54:59.275Z,17.77
2022-07-31T05:55:54.702Z,17.81
2022-07-31T05:56:50.259Z,17.88
2022-07-31T05:57:45.552Z,17.95
2022-07-31T05:58:40.953Z,17.98
2022-07-31T05:59:36.413Z,18.00
2022-07-31T06:00:31.823Z,18.04
2022-07-31T06:01:27.497Z,18.04
2022-07-31T06:02:22.952Z,18.05
2022-07-31T06:03:19.428Z,18.02
2022-07-31T06:04:14.883Z,18.05
2022-07-31T06:05:10.445Z,18.07
2022-07-31T06:06:05.610Z,18.11
2022-07-31T06:07:01.171Z,18.11
2022-07-31T06:07:56.601Z,18.14
2022-07-31T06:08:52.015Z,18.19
2022-07-31T06:09:47.448Z,18.23
2022-07-31T06:10:44.258Z,18.26
2022-07-31T06:11:39.671Z,18.35
2022-07-31T06:12:35.078Z,18.43
2022-07-31T06:13:30.527Z,18.52
2022-07-31T06:14:26.101Z,18.63
2022-07-31T06:15:21.506Z,18.76
2022-07-31T06:16:16.908Z,18.90
2022-07-31T06:17:12.327Z,19.00
2022-07-31T06:18:07.725Z,19.07
2022-07-31T06:19:03.152Z,19.15
2022-07-31T06:19:58.621Z,19.21
2022-07-31T06:20:54.097Z,19.24
2022-07-31T06:21:49.578Z,19.33
2022-07-31T06:22:45.014Z,19.47
2022-07-31T06:23:40.496Z,19.56
2022-07-31T06:24:35.968Z,19.62
2022-07-31T06:25:32.008Z,19.69
2022-07-31T06:26:31.595Z,19.70
2022-07-31T06:27:30.575Z,19.72
2022-07-31T06:28:29.052Z,19.77
2022-07-31T06:29:18.241Z,19.91
2022-07-31T06:30:12.775Z,19.97
2022-07-31T06:31:08.198Z,20.03
2022-07-31T06:32:03.902Z,20.09
2022-07-31T06:32:59.279Z,20.14
2022-07-31T06:33:54.746Z,20.21
2022-07-31T06:34:50.151Z,20.22
2022-07-31T06:35:45.616Z,20.15
2022-07-31T06:36:40.710Z,20.07
2022-07-31T06:37:35.739Z,20.11
2022-07-31T06:38:30.754Z,20.13
2022-07-31T06:39:54.040Z,20.15
2022-07-31T06:40:21.840Z,20.17
2022-07-31T06:41:15.841Z,20.24
2022-07-31T06:42:10.911Z,20.35
2022-07-31T06:43:06.935Z,20.59
2022-07-31T06:44:01.150Z,20.79
2022-07-31T06:44:56.218Z,20.88
2022-07-31T06:45:52.635Z,20.90
2022-07-31T06:46:49.221Z,20.91
2022-07-31T06:47:41.328Z,20.97
2022-07-31T06:48:36.430Z,21.11
2022-07-31T06:49:31.957Z,21.17
2022-07-31T06:50:26.939Z,21.21
2022-07-31T06:51:31.386Z,21.26
2022-07-31T06:52:18.066Z,21.31
2022-07-31T06:53:12.450Z,21.37
2022-07-31T06:54:07.926Z,21.45
2022-07-31T06:55:03.557Z,21.45
2022-07-31T06:55:59.016Z,21.45
2022-07-31T06:56:54.457Z,21.46
2022-07-31T06:57:49.936Z,21.46
2022-07-31T06:58:45.397Z,21.47
2022-07-31T06:59:41.023Z,21.46
2022-07-31T07:00:36.384Z,21.27
2022-07-31T07:01:31.874Z,21.08
2022-07-31T07:02:27.458Z,21.01
2022-07-31T07:03:22.803Z,20.91
2022-07-31T07:04:18.288Z,20.88
2022-07-31T07:05:13.778Z,20.77
2022-07-31T07:06:08.833Z,20.72
2022-07-31T07:07:03.892Z,20.66
2022-07-31T07:07:58.955Z,20.64
2022-07-31T07:08:54.050Z,20.62
2022-07-31T07:09:49.222Z,20.57
2022-07-31T07:10:44.316Z,20.57
2022-07-31T07:11:39.489Z,20.65
2022-07-31T07:12:36.308Z,20.69
2022-07-31T07:13:46.367Z,20.74
2022-07-31T07:14:27.398Z,20.76
2022-07-31T07:15:21.391Z,20.80
2022-07-31T07:16:17.666Z,20.86
2022-07-31T07:17:13.083Z,20.97
2022-07-31T07:18:08.599Z,21.05
2022-07-31T07:19:04.071Z,21.10
2022-07-31T07:19:59.669Z,21.18
2022-07-31T07:20:55.293Z,21.18
2022-07-31T07:21:50.639Z,21.09
2022-07-31T07:22:46.245Z,21.10
2022-07-31T07:23:41.579Z,21.03
2022-07-31T07:24:37.069Z,21.08
2022-07-31T07:25:33.888Z,21.17
2022-07-31T07:26:29.246Z,21.23
2022-07-31T07:27:24.721Z,21.30
2022-07-31T07:28:30.065Z,21.40
2022-07-31T07:29:16.692Z,21.50
2022-07-31T07:30:11.087Z,21.54
2022-07-31T07:31:06.712Z,21.62
2022-07-31T07:32:02.446Z,21.68
2022-07-31T07:32:57.652Z,21.69
2022-07-31T07:33:53.261Z,21.76
2022-07-31T07:34:48.781Z,21.75
2022-07-31T07:35:45.792Z,21.82
2022-07-31T07:36:40.225Z,22.02
2022-07-31T07:37:39.018Z,22.19
2022-07-31T07:38:30.822Z,22.25
2022-07-31T07:39:25.844Z,22.34
2022-07-31T07:40:20.844Z,22.24
2022-07-31T07:41:18.516Z,22.24
2022-07-31T07:42:10.944Z,22.38
2022-07-31T07:43:05.942Z,22.42
2022-07-31T07:44:01.065Z,22.42
2022-07-31T07:44:56.106Z,22.48
2022-07-31T07:45:51.119Z,22.58
2022-07-31T07:46:46.231Z,22.60
2022-07-31T07:47:53.815Z,22.55
2022-07-31T07:48:37.309Z,22.63
2022-07-31T07:49:31.423Z,22.71
2022-07-31T07:50:27.080Z,22.82
2022-07-31T07:51:21.731Z,22.88
2022-07-31T07:52:17.136Z,23.01
2022-07-31T07:53:12.661Z,23.33
2022-07-31T07:54:08.233Z,23.40
2022-07-31T07:55:03.846Z,23.35
2022-07-31T07:55:59.172Z,23.16
2022-07-31T07:56:54.582Z,23.01
2022-07-31T07:57:50.091Z,22.99
2022-07-31T07:58:45.535Z,22.85
2022-07-31T07:59:41.176Z,22.88
2022-07-31T08:00:36.659Z,22.91
2022-07-31T08:01:32.171Z,22.91
2022-07-31T08:02:27.564Z,22.87
2022-07-31T08:03:48.619Z,22.93
2022-07-31T08:04:19.777Z,22.94
2022-07-31T08:05:14.078Z,22.93
2022-07-31T08:06:09.551Z,22.92
2022-07-31T08:07:05.318Z,22.97
2022-07-31T08:08:00.821Z,22.96
2022-07-31T08:08:56.309Z,22.86
2022-07-31T08:09:51.811Z,22.76
2022-07-31T08:10:47.277Z,22.71
2022-07-31T08:11:42.669Z,22.73
2022-07-31T08:12:38.103Z,22.84
2022-07-31T08:13:34.169Z,22.92
2022-07-31T08:14:29.610Z,23.05
2022-07-31T08:15:25.142Z,23.14
2022-07-31T08:16:20.738Z,23.28
2022-07-31T08:17:16.129Z,23.42
2022-07-31T08:18:11.271Z,23.52
2022-07-31T08:19:06.350Z,23.80
2022-07-31T08:20:01.475Z,24.07
2022-07-31T08:20:56.487Z,24.16
2022-07-31T08:21:55.673Z,24.28
2022-07-31T08:22:51.204Z,24.31
2022-07-31T08:23:46.762Z,24.40
2022-07-31T08:24:42.558Z,24.47
2022-07-31T08:25:38.073Z,24.46
2022-07-31T08:26:33.593Z,24.48
2022-07-31T08:27:40.222Z,24.42
2022-07-31T08:28:26.282Z,24.37
2022-07-31T08:29:27.518Z,24.37
2022-07-31T08:30:17.354Z,24.38
2022-07-31T08:31:12.034Z,24.38
2022-07-31T08:32:08.182Z,24.38
2022-07-31T08:33:03.570Z,24.43
2022-07-31T08:33:59.529Z,24.42
2022-07-31T08:34:55.037Z,24.36
2022-07-31T08:35:50.804Z,24.48
2022-07-31T08:36:46.334Z,24.70
2022-07-31T08:37:52.612Z,24.94
2022-07-31T08:38:38.358Z,25.18
2022-07-31T08:39:32.922Z,25.51
2022-07-31T08:40:28.585Z,25.70
2022-07-31T08:41:24.119Z,25.81
2022-07-31T08:42:19.668Z,25.85
2022-07-31T08:44:12.666Z,25.84
2022-07-31T08:45:07.396Z,26.01
2022-07-31T08:46:03.015Z,26.21
2022-07-31T08:46:58.491Z,26.18
2022-07-31T08:47:54.150Z,26.23
2022-07-31T08:48:49.605Z,26.38
2022-07-31T08:49:45.404Z,26.48
2022-07-31T08:50:40.909Z,26.56
2022-07-31T08:51:51.236Z,26.57
2022-07-31T08:52:33.117Z,26.57
2022-07-31T08:53:27.583Z,26.57
2022-07-31T08:54:23.100Z,26.56
2022-07-31T08:55:55.523Z,26.51
2022-07-31T08:56:16.108Z,26.57
2022-07-31T08:57:12.868Z,26.49
2022-07-31T08:58:06.298Z,26.47
2022-07-31T08:59:01.876Z,26.49
2022-07-31T08:59:57.528Z,26.51
2022-07-31T09:00:52.969Z,26.46
2022-07-31T09:01:48.761Z,26.50
2022-07-31T09:02:44.156Z,26.42
2022-07-31T09:03:39.665Z,26.41
2022-07-31T09:04:35.526Z,26.41
2022-07-31T09:05:41.913Z,26.38
2022-07-31T09:06:27.514Z,26.32
2022-07-31T09:07:21.958Z,26.27
2022-07-31T09:08:17.780Z,26.29
2022-07-31T09:09:13.300Z,26.27
2022-07-31T09:10:08.774Z,26.23
2022-07-31T09:11:06.159Z,26.28
2022-07-31T09:12:00.805Z,26.31
2022-07-31T09:12:56.537Z,26.32
2022-07-31T09:14:01.472Z,26.28
2022-07-31T09:14:48.949Z,26.24
2022-07-31T09:15:43.496Z,26.22
2022-07-31T09:16:39.445Z,26.18
2022-07-31T09:17:34.998Z,26.18
2022-07-31T09:18:30.537Z,26.16
2022-07-31T09:19:51.626Z,26.17
2022-07-31T09:20:22.451Z,26.19
2022-07-31T09:21:17.137Z,26.24
2022-07-31T09:22:12.595Z,26.28
2022-07-31T09:23:08.067Z,26.31
2022-07-31T09:24:03.789Z,26.33
2022-07-31T09:24:59.334Z,26.32
2022-07-31T09:25:55.028Z,26.32
2022-07-31T09:26:50.513Z,26.33
2022-07-31T09:27:46.369Z,26.36
2022-07-31T09:28:41.706Z,26.46
2022-07-31T09:29:37.112Z,26.56
2022-07-31T09:30:32.813Z,26.65
2022-07-31T09:31:28.205Z,26.72
2022-07-31T09:32:23.644Z,26.72
2022-07-31T09:33:19.941Z,26.74
2022-07-31T09:34:15.497Z,26.76
2022-07-31T09:35:11.363Z,26.78
2022-07-31T09:36:06.849Z,26.79
2022-07-31T09:37:02.559Z,26.79
2022-07-31T09:37:58.074Z,26.83
2022-07-31T09:38:53.643Z,26.87
2022-07-31T09:39:52.396Z,26.92
2022-07-31T09:40:55.355Z,26.96
2022-07-31T09:41:58.267Z,26.97
2022-07-31T09:42:36.434Z,26.99
2022-07-31T09:43:31.505Z,27.05
2022-07-31T09:44:26.228Z,27.22
2022-07-31T09:45:20.616Z,27.56
2022-07-31T09:46:15.778Z,27.74
2022-07-31T09:47:10.868Z,27.76
2022-07-31T09:48:05.890Z,27.82
2022-07-31T09:49:00.967Z,27.91
2022-07-31T09:49:56.016Z,28.03
2022-07-31T09:50:51.090Z,28.18
2022-07-31T09:51:46.139Z,28.22
2022-07-31T09:52:41.159Z,28.27
2022-07-31T09:53:39.288Z,28.29
2022-07-31T09:54:32.378Z,28.31
2022-07-31T09:55:26.497Z,28.51
2022-07-31T09:56:21.539Z,28.85
2022-07-31T09:57:16.999Z,29.10
2022-07-31T09:58:13.532Z,29.31
2022-07-31T09:59:08.887Z,29.50
2022-07-31T10:00:04.647Z,29.52
2022-07-31T10:01:00.140Z,29.62
2022-07-31T10:01:55.467Z,29.83
2022-07-31T10:02:51.327Z,29.95
2022-07-31T10:03:46.795Z,29.99
2022-07-31T10:04:42.616Z,30.18
2022-07-31T10:05:38.109Z,30.13
2022-07-31T10:06:33.440Z,30.01
2022-07-31T10:07:32.565Z,29.94
2022-07-31T10:08:24.863Z,29.88
2022-07-31T10:09:20.313Z,29.97
2022-07-31T10:10:16.846Z,30.04
2022-07-31T10:11:16.690Z,30.15
2022-07-31T10:12:08.054Z,30.13
2022-07-31T10:13:03.526Z,30.28
2022-07-31T10:13:58.957Z,30.40
2022-07-31T10:14:54.689Z,30.54
2022-07-31T10:15:50.394Z,30.68
2022-07-31T10:16:46.126Z,30.79
2022-07-31T10:17:41.444Z,30.92
2022-07-31T10:18:38.601Z,30.99
2022-07-31T10:19:32.569Z,30.95
2022-07-31T10:20:28.000Z,31.06
2022-07-31T10:21:23.441Z,31.11
2022-07-31T10:22:19.854Z,31.00
2022-07-31T10:23:15.298Z,31.06
2022-07-31T10:24:11.142Z,31.18
2022-07-31T10:25:06.662Z,31.23
2022-07-31T10:26:02.105Z,31.23
2022-07-31T10:27:00.728Z,31.31
2022-07-31T10:27:53.253Z,31.35
2022-07-31T10:28:49.022Z,31.40
2022-07-31T10:29:44.469Z,31.21
2022-07-31T10:30:40.111Z,31.09
2022-07-31T10:31:35.830Z,31.09
2022-07-31T10:32:31.261Z,31.14
2022-07-31T10:33:43.736Z,31.14
2022-07-31T10:34:23.973Z,31.18
2022-07-31T10:35:18.605Z,31.25
2022-07-31T10:36:14.465Z,31.15
2022-07-31T10:37:11.207Z,31.18
2022-07-31T10:38:05.415Z,31.30
2022-07-31T10:39:00.480Z,31.52
2022-07-31T10:39:55.492Z,31.63
2022-07-31T10:40:50.562Z,31.56
2022-07-31T10:41:45.617Z,31.45
2022-07-31T10:42:40.627Z,31.30
2022-07-31T10:43:41.250Z,31.04
2022-07-31T10:44:38.624Z,30.98
2022-07-31T10:45:32.146Z,31.09
2022-07-31T10:46:27.991Z,31.15
2022-07-31T10:47:23.319Z,31.18
2022-07-31T10:48:18.769Z,30.74
2022-07-31T10:49:15.137Z,30.67
2022-07-31T10:50:10.695Z,30.51
2022-07-31T10:51:06.512Z,30.40
2022-07-31T10:52:01.966Z,30.24
2022-07-31T10:53:00.620Z,30.10
2022-07-31T10:53:55.256Z,29.96
2022-07-31T10:54:48.519Z,30.19
2022-07-31T10:55:44.243Z,30.46
2022-07-31T10:56:39.684Z,30.53
2022-07-31T10:57:35.143Z,30.59
2022-07-31T10:58:31.585Z,30.75
2022-07-31T10:59:26.097Z,30.85
2022-07-31T11:00:21.560Z,30.86
2022-07-31T11:01:17.654Z,30.81
2022-07-31T11:02:11.676Z,30.77
2022-07-31T11:03:06.736Z,30.64
2022-07-31T11:04:02.783Z,30.60
2022-07-31T11:04:59.146Z,30.56
2022-07-31T11:06:01.651Z,30.56
2022-07-31T11:06:47.785Z,30.45
2022-07-31T11:07:42.173Z,30.30
2022-07-31T11:08:37.190Z,30.49
2022-07-31T11:09:32.294Z,30.75
2022-07-31T11:10:27.327Z,30.89
2022-07-31T11:11:25.990Z,31.03
2022-07-31T11:12:17.505Z,31.22
2022-07-31T11:13:12.554Z,31.29
2022-07-31T11:14:07.585Z,31.17
2022-07-31T11:15:02.658Z,31.08
2022-07-31T11:15:57.706Z,30.95
2022-07-31T11:16:52.797Z,30.75
2022-07-31T11:18:22.107Z,30.53
2022-07-31T11:18:44.423Z,30.51
2022-07-31T11:19:41.145Z,30.17
2022-07-31T11:20:33.795Z,30.14
2022-07-31T11:21:38.559Z,30.51
2022-07-31T11:22:31.713Z,30.81
2022-07-31T11:23:20.093Z,30.84
2022-07-31T11:24:14.198Z,30.52
2022-07-31T11:25:09.256Z,30.21
2022-07-31T11:26:04.276Z,30.04
2022-07-31T11:27:03.641Z,30.21
2022-07-31T11:27:58.367Z,30.57
2022-07-31T11:28:53.441Z,30.73
2022-07-31T11:29:58.784Z,30.80
2022-07-31T11:30:44.494Z,30.73
2022-07-31T11:31:38.624Z,31.01
2022-07-31T11:32:33.656Z,31.15
2022-07-31T11:33:28.841Z,31.24
2022-07-31T11:34:23.949Z,31.48
2022-07-31T11:35:19.620Z,31.57
2022-07-31T11:36:15.378Z,31.63
2022-07-31T11:37:10.946Z,31.86
2022-07-31T11:38:06.821Z,32.08
2022-07-31T11:39:02.682Z,32.17
2022-07-31T11:39:57.742Z,32.34
2022-07-31T11:40:52.932Z,32.39
2022-07-31T11:41:48.002Z,32.28
2022-07-31T11:42:59.820Z,32.36
2022-07-31T11:43:44.052Z,32.35
2022-07-31T11:44:38.982Z,32.36
2022-07-31T11:45:34.280Z,32.34
2022-07-31T11:46:30.003Z,31.94
2022-07-31T11:48:10.026Z,32.15
2022-07-31T11:48:22.011Z,32.22
2022-07-31T11:49:16.862Z,32.11
2022-07-31T11:50:12.297Z,32.06
2022-07-31T11:51:07.773Z,31.83
2022-07-31T11:52:04.030Z,31.58
2022-07-31T11:52:59.360Z,31.23
2022-07-31T11:53:57.268Z,30.94
2022-07-31T11:54:50.644Z,30.70